Time;durP1;ratioP1;P1;durP2;ratioP2;P2;SDS_P1;SDS_P2;PMS_P1;PMS_P2;Temp;Humidity;BMP_temperature;BMP_pressure;BME280_temperature;BME280_humidity;BME280_pressure;Samples;Min_cycle;Max_cycle;Signal;HPM_P1;HPM_P2
2022/09/28 00:00:50;;;;;;;8.50;7.03;;;;;;;8.92;100.00;99514.66;5257811;28;20111;-77
2022/09/28 00:03:21;;;;;;;6.55;5.82;;;;;;;8.93;100.00;99513.69;5275440;28;20522;-77
2022/09/28 00:05:52;;;;;;;8.60;6.68;;;;;;;8.88;100.00;99523.78;5277153;28;20036;-77
2022/09/28 00:08:23;;;;;;;7.40;6.60;;;;;;;8.92;100.00;99528.53;5275581;28;20119;-77
2022/09/28 00:10:56;;;;;;;8.50;7.25;;;;;;;8.97;100.00;99531.50;5275303;28;20032;-77
2022/09/28 00:13:28;;;;;;;7.93;6.27;;;;;;;8.97;100.00;99522.84;5259427;28;20033;-77
2022/09/28 00:16:09;;;;;;;9.20;6.70;;;;;;;9.13;100.00;99520.38;5278147;28;20737;-77
2022/09/28 00:18:41;;;;;;;7.28;6.45;;;;;;;9.06;100.00;99521.13;5259723;28;20278;-77
2022/09/28 00:21:15;;;;;;;8.30;7.07;;;;;;;8.95;100.00;99517.78;5274051;28;20039;-77
2022/09/28 00:26:39;;;;;;;9.63;6.93;;;;;;;8.96;100.00;99511.59;5277919;28;20045;-77
2022/09/28 00:29:34;;;;;;;8.85;7.28;;;;;;;9.22;100.00;99508.16;5275788;28;20032;-77
2022/09/28 00:32:10;;;;;;;7.75;6.78;;;;;;;9.05;100.00;99509.03;5256102;28;20032;-77
2022/09/28 00:34:44;;;;;;;9.18;6.90;;;;;;;9.02;100.00;99500.53;5275370;28;20013;-77
2022/09/28 00:37:17;;;;;;;8.52;7.30;;;;;;;9.00;100.00;99504.25;5278278;28;20103;-77
2022/09/28 00:39:49;;;;;;;11.88;7.93;;;;;;;9.06;100.00;99497.63;5276017;28;20024;-77
2022/09/28 00:42:23;;;;;;;7.88;6.97;;;;;;;9.05;100.00;99491.56;5277584;28;20035;-77
2022/09/28 00:44:56;;;;;;;7.80;6.70;;;;;;;8.95;100.00;99486.44;5274940;28;20036;-77
2022/09/28 00:47:49;;;;;;;10.32;6.70;;;;;;;9.15;100.00;99487.06;5277837;28;20017;-77
2022/09/28 00:50:27;;;;;;;;;;;;;;;9.54;100.00;99494.44;5276592;28;20036;-77
2022/09/28 00:53:10;;;;;;;8.80;7.00;;;;;;;9.16;100.00;99488.69;5269819;28;19919;-77
2022/09/28 00:55:47;;;;;;;10.20;6.90;;;;;;;9.03;100.00;99480.47;5277124;28;20040;-77
2022/09/28 00:58:27;;;;;;;9.80;6.88;;;;;;;9.05;100.00;99475.06;5276636;28;20035;-77
2022/09/28 01:00:59;;;;;;;8.80;6.68;;;;;;;9.01;100.00;99477.97;5255337;28;20036;-77
2022/09/28 01:03:32;;;;;;;9.45;7.07;;;;;;;9.04;100.00;99476.03;5259737;28;20028;-77
2022/09/28 01:06:06;;;;;;;8.60;7.20;;;;;;;9.07;100.00;99473.94;5251564;28;20041;-77
2022/09/28 01:08:38;;;;;;;12.63;7.90;;;;;;;9.05;100.00;99481.09;5277171;28;20017;-77
2022/09/28 01:11:09;;;;;;;10.57;7.97;;;;;;;9.08;100.00;99482.59;5276338;28;20115;-77
2022/09/28 01:13:42;;;;;;;10.77;8.02;;;;;;;9.03;100.00;99475.22;5275175;28;20557;-77
2022/09/28 01:16:25;;;;;;;9.67;7.73;;;;;;;9.20;100.00;99474.34;5271464;28;20032;-77
2022/09/28 01:19:14;;;;;;;11.55;7.72;;;;;;;9.32;100.00;99480.16;5274721;28;20104;-77
2022/09/28 01:21:57;;;;;;;11.95;8.00;;;;;;;9.19;100.00;99483.16;5257152;28;20062;-77
2022/09/28 01:24:39;;;;;;;10.03;7.70;;;;;;;9.25;100.00;99476.50;5274434;28;20428;-77
2022/09/28 01:27:26;;;;;;;8.93;8.00;;;;;;;9.24;100.00;99482.69;5269174;28;20061;-76
2022/09/28 01:30:06;;;;;;;9.70;8.10;;;;;;;9.22;100.00;99487.25;5255826;28;20031;-77
2022/09/28 01:32:44;;;;;;;10.80;8.80;;;;;;;9.22;100.00;99479.44;5263561;28;20171;-77
2022/09/28 01:35:19;;;;;;;13.38;9.50;;;;;;;9.21;100.00;99481.22;5275077;28;20093;-77
2022/09/28 01:37:55;;;;;;;10.45;8.32;;;;;;;9.20;100.00;99481.34;5275466;28;20024;-76
2022/09/28 01:40:30;;;;;;;14.43;10.25;;;;;;;9.18;100.00;99485.94;5255304;28;20024;-76
2022/09/28 01:43:07;;;;;;;11.32;10.00;;;;;;;9.20;100.00;99489.19;5274124;28;20028;-77
2022/09/28 01:45:44;;;;;;;15.75;9.82;;;;;;;9.20;100.00;99490.00;5274313;28;20119;-76
2022/09/28 01:48:21;;;;;;;14.90;10.32;;;;;;;9.23;100.00;99496.72;5272111;28;20036;-76
2022/09/28 01:50:56;;;;;;;12.45;10.77;;;;;;;9.16;100.00;99493.09;5276337;28;20038;-76
2022/09/28 01:53:36;;;;;;;12.68;11.40;;;;;;;9.30;100.00;99494.34;5273303;28;20494;-77
2022/09/28 01:56:16;;;;;;;17.05;12.60;;;;;;;9.26;100.00;99496.44;5271838;28;20121;-77
2022/09/28 01:58:58;;;;;;;13.73;11.95;;;;;;;9.29;100.00;99498.75;5274891;28;20512;-77
2022/09/28 02:01:37;;;;;;;13.02;11.77;;;;;;;9.29;100.00;99501.34;5275956;28;20082;-77
2022/09/28 02:04:23;;;;;;;13.45;11.68;;;;;;;9.38;100.00;99497.81;5257776;28;20222;-77
2022/09/28 02:07:05;;;;;;;13.32;11.88;;;;;;;9.25;100.00;99493.00;5271704;28;20089;-77
2022/09/28 02:09:43;;;;;;;14.77;11.43;;;;;;;9.24;100.00;99487.91;5269453;28;20032;-77
2022/09/28 02:12:23;;;;;;;12.48;11.13;;;;;;;9.27;100.00;99485.81;5275063;28;20496;-76
2022/09/28 02:15:04;;;;;;;12.10;10.70;;;;;;;9.22;100.00;99482.03;5256960;28;20043;-77
2022/09/28 02:17:35;;;;;;;11.88;10.60;;;;;;;9.08;100.00;99480.81;5272596;28;20479;-76
2022/09/28 02:20:07;;;;;;;11.88;9.40;;;;;;;9.10;100.00;99486.72;5254443;28;20032;-76
2022/09/28 02:22:46;;;;;;;9.82;8.68;;;;;;;9.07;100.00;99479.16;5274787;28;20374;-76
2022/09/28 02:25:39;;;;;;;10.82;8.85;;;;;;;9.08;100.00;99495.66;5274214;28;20020;-76
2022/09/28 02:28:12;;;;;;;7.97;7.17;;;;;;;9.04;100.00;99489.09;5271626;28;20040;-76
2022/09/28 02:30:43;;;;;;;9.90;8.52;;;;;;;8.96;100.00;99487.25;5276582;28;20445;-76
2022/09/28 02:33:20;;;;;;;11.68;7.00;;;;;;;8.95;100.00;99483.84;5276074;28;20054;-76
2022/09/28 02:35:52;;;;;;;7.97;6.63;;;;;;;8.91;100.00;99487.72;5258038;28;20118;-76
2022/09/28 02:38:23;;;;;;;9.73;7.07;;;;;;;8.91;100.00;99490.34;5255353;28;20277;-76
2022/09/28 02:41:23;;;;;;;10.40;6.55;;;;;;;9.10;100.00;99483.28;5275300;28;20469;-76
2022/09/28 02:44:06;;;;;;;10.13;6.00;;;;;;;8.93;100.00;99483.16;5239054;28;20051;-76
2022/09/28 02:47:11;;;;;;;8.63;6.70;;;;;;;9.05;100.00;99480.28;5270459;28;20044;-76
2022/09/28 02:49:48;;;;;;;8.07;5.90;;;;;;;8.91;100.00;99485.13;5273052;28;20044;-76
2022/09/28 02:52:19;;;;;;;11.80;6.38;;;;;;;8.85;100.00;99490.94;5275543;28;20047;-76
2022/09/28 02:55:11;;;;;;;7.87;6.17;;;;;;;8.84;100.00;99491.09;5274867;28;20029;-76
2022/09/28 02:57:54;;;;;;;7.22;6.05;;;;;;;8.93;100.00;99493.59;5256505;28;20274;-76
2022/09/28 03:00:26;;;;;;;8.00;5.80;;;;;;;8.78;100.00;99495.13;5278464;28;20502;-76
2022/09/28 03:03:10;;;;;;;8.48;5.93;;;;;;;8.84;100.00;99501.53;5280226;28;20036;-76
2022/09/28 03:06:06;;;;;;;6.75;5.85;;;;;;;8.99;100.00;99502.63;5279220;28;20426;-76
2022/09/28 03:08:53;;;;;;;9.10;5.38;;;;;;;8.82;100.00;99499.06;5266996;28;20486;-76
2022/09/28 03:11:29;;;;;;;8.05;5.22;;;;;;;8.82;100.00;99504.28;5278442;28;20035;-78
2022/09/28 03:14:02;;;;;;;6.82;5.38;;;;;;;8.78;100.00;99502.97;5280193;28;20045;-79
2022/09/28 03:16:33;;;;;;;7.38;4.88;;;;;;;8.81;100.00;99507.88;5271883;28;20500;-76
2022/09/28 03:19:04;;;;;;;6.55;5.13;;;;;;;8.82;100.00;99500.88;5277789;28;20068;-76
2022/09/28 03:21:35;;;;;;;6.43;5.32;;;;;;;8.83;100.00;99489.47;5280112;28;20033;-76
2022/09/28 03:24:09;;;;;;;5.97;4.68;;;;;;;8.80;100.00;99493.19;5279787;28;20043;-76
2022/09/28 03:26:41;;;;;;;4.68;4.20;;;;;;;8.76;100.00;99492.69;5275744;28;20031;-76
2022/09/28 03:29:12;;;;;;;5.38;4.13;;;;;;;8.74;100.00;99486.78;5277518;28;20028;-76
2022/09/28 03:31:43;;;;;;;7.38;4.35;;;;;;;8.78;100.00;99495.13;5255987;28;20029;-76
2022/09/28 03:34:15;;;;;;;6.25;4.65;;;;;;;8.81;100.00;99488.78;5278941;28;20031;-76
2022/09/28 03:36:46;;;;;;;4.25;3.75;;;;;;;8.85;100.00;99501.38;5279283;28;20024;-76
2022/09/28 03:39:17;;;;;;;5.43;4.22;;;;;;;8.80;100.00;99500.22;5275141;28;20107;-76
2022/09/28 03:41:49;;;;;;;5.28;4.00;;;;;;;8.83;100.00;99500.72;5276646;28;20055;-76
2022/09/28 03:44:20;;;;;;;8.88;4.45;;;;;;;8.82;100.00;99506.91;5277409;28;20024;-76
2022/09/28 03:46:51;;;;;;;6.35;3.90;;;;;;;8.78;100.00;99502.97;5278529;28;20123;-76
2022/09/28 03:49:22;;;;;;;6.15;3.50;;;;;;;8.78;100.00;99505.56;5274354;28;20045;-76
2022/09/28 03:51:54;;;;;;;6.35;3.70;;;;;;;8.77;100.00;99509.97;5274875;28;20091;-76
2022/09/28 03:54:25;;;;;;;9.00;3.65;;;;;;;8.64;100.00;99491.28;5278838;28;20023;-76
2022/09/28 03:56:56;;;;;;;5.82;3.42;;;;;;;8.75;100.00;99508.47;5278946;28;20070;-76
2022/09/28 03:59:28;;;;;;;5.25;3.60;;;;;;;8.69;100.00;99496.84;5276927;28;20385;-76
2022/09/28 04:01:59;;;;;;;6.32;3.30;;;;;;;8.71;100.00;99502.75;5275486;28;20032;-76
2022/09/28 04:04:30;;;;;;;5.47;3.20;;;;;;;8.72;100.00;99506.19;5277777;28;20024;-76
2022/09/28 04:07:02;;;;;;;4.32;3.20;;;;;;;8.61;100.00;99491.56;5276002;28;20732;-76
2022/09/28 04:09:33;;;;;;;6.38;3.22;;;;;;;8.73;100.00;99506.03;5274313;28;20028;-76
2022/09/28 04:12:07;;;;;;;5.50;3.03;;;;;;;8.79;100.00;99502.00;5276190;28;20371;-76
2022/09/28 04:14:38;;;;;;;3.65;2.80;;;;;;;8.70;100.00;99508.94;5260778;28;20059;-76
2022/09/28 04:17:10;;;;;;;6.40;2.55;;;;;;;8.74;100.00;99509.44;5275450;28;20733;-76
2022/09/28 04:19:41;;;;;;;4.63;2.67;;;;;;;8.69;100.00;99503.88;5275015;28;20032;-75
2022/09/28 04:22:13;;;;;;;5.95;3.38;;;;;;;8.69;100.00;99507.31;5276767;28;20079;-75
2022/09/28 04:24:45;;;;;;;4.43;2.83;;;;;;;8.75;100.00;99511.09;5276417;28;20128;-76
2022/09/28 04:30:07;;;;;;;4.93;2.22;;;;;;;8.74;100.00;99494.59;5270669;28;20029;-76
2022/09/28 04:32:38;;;;;;;3.35;2.05;;;;;;;8.80;100.00;99501.03;5274808;28;20040;-76
2022/09/28 04:35:10;;;;;;;5.40;2.13;;;;;;;8.84;100.00;99498.94;5277330;28;20036;-76
2022/09/28 04:37:42;;;;;;;3.00;1.70;;;;;;;8.83;100.00;99487.66;5274025;28;20032;-78
2022/09/28 04:40:13;;;;;;;10.50;1.80;;;;;;;8.81;100.00;99487.00;5273910;28;20781;-76
2022/09/28 04:42:52;;;;;;;5.63;1.88;;;;;;;8.91;100.00;99489.53;5276719;28;20033;-78
2022/09/28 04:45:27;;;;;;;2.97;2.00;;;;;;;8.78;100.00;99498.56;5277254;28;20143;-77
2022/09/28 04:47:58;;;;;;;3.25;2.00;;;;;;;8.82;100.00;99503.47;5276495;28;20080;-77
2022/09/28 04:50:29;;;;;;;2.92;1.65;;;;;;;8.78;100.00;99495.94;5277123;28;20460;-77
2022/09/28 04:53:01;;;;;;;8.40;2.95;;;;;;;8.74;100.00;99499.00;5278520;28;20485;-77
2022/09/28 04:55:32;;;;;;;3.03;1.52;;;;;;;8.67;100.00;99498.78;5275348;28;20032;-77
2022/09/28 04:58:03;;;;;;;2.72;1.60;;;;;;;8.60;100.00;99496.94;5272128;28;20020;-77
2022/09/28 05:00:34;;;;;;;3.47;1.55;;;;;;;8.62;100.00;99514.09;5277569;28;20115;-77
2022/09/28 05:03:06;;;;;;;4.13;1.50;;;;;;;8.58;100.00;99509.31;5277272;28;20024;-78
2022/09/28 05:05:43;;;;;;;4.53;1.63;;;;;;;8.63;100.00;99518.34;5276790;28;20120;-77
2022/09/28 05:08:15;;;;;;;4.80;1.42;;;;;;;8.46;100.00;99509.56;5271750;28;20380;-77
2022/09/28 05:10:46;;;;;;;2.53;1.40;;;;;;;8.45;100.00;99518.34;5278118;28;20488;-77
2022/09/28 05:13:19;;;;;;;2.80;1.40;;;;;;;8.50;100.00;99510.88;5276208;28;20032;-77
2022/09/28 05:15:55;;;;;;;2.03;1.50;;;;;;;8.52;100.00;99522.03;5254839;28;20178;-77
2022/09/28 05:18:26;;;;;;;3.38;1.40;;;;;;;8.47;100.00;99516.41;5277634;28;20039;-77
2022/09/28 05:20:58;;;;;;;3.05;1.70;;;;;;;8.49;100.00;99517.09;5274899;28;20028;-77
2022/09/28 05:23:29;;;;;;;3.80;1.60;;;;;;;8.50;100.00;99523.13;5277113;28;20081;-77
2022/09/28 05:26:01;;;;;;;2.88;1.70;;;;;;;8.47;100.00;99521.63;5277029;28;20017;-77
2022/09/28 05:28:33;;;;;;;4.75;1.70;;;;;;;8.46;100.00;99529.63;5275126;28;20036;-77
2022/09/28 05:31:04;;;;;;;2.97;1.70;;;;;;;8.42;100.00;99523.06;5273670;28;20521;-77
2022/09/28 05:33:36;;;;;;;3.55;1.95;;;;;;;8.48;100.00;99523.25;5270697;28;20469;-77
2022/09/28 05:36:09;;;;;;;3.30;2.22;;;;;;;8.49;100.00;99522.31;5266988;28;20028;-77
2022/09/28 05:38:41;;;;;;;6.38;2.40;;;;;;;8.42;100.00;99510.00;5273008;28;20159;-77
2022/09/28 05:41:12;;;;;;;4.93;2.42;;;;;;;8.45;100.00;99514.94;5274653;28;20111;-77
2022/09/28 05:43:44;;;;;;;4.00;2.83;;;;;;;8.46;100.00;99517.38;5277125;28;20512;-77
2022/09/28 05:46:16;;;;;;;3.85;2.60;;;;;;;8.44;100.00;99516.69;5276205;28;20055;-77
2022/09/28 05:48:47;;;;;;;3.58;3.00;;;;;;;8.48;100.00;99523.25;5274157;28;20095;-77
2022/09/28 05:51:19;;;;;;;3.85;3.20;;;;;;;8.46;100.00;99520.00;5274650;28;20031;-77
2022/09/28 05:53:54;;;;;;;4.90;3.30;;;;;;;8.52;100.00;99523.78;5273369;28;20032;-77
2022/09/28 05:56:25;;;;;;;5.32;3.33;;;;;;;8.44;100.00;99521.91;5274721;28;20382;-77
2022/09/28 05:58:57;;;;;;;7.03;4.00;;;;;;;8.52;100.00;99531.63;5256960;28;20032;-78
2022/09/28 06:01:28;;;;;;;8.85;4.70;;;;;;;8.45;100.00;99520.97;5273739;28;20031;-77
2022/09/28 06:04:00;;;;;;;7.40;4.30;;;;;;;8.47;100.00;99526.84;5276700;28;20115;-77
2022/09/28 06:06:34;;;;;;;5.97;4.45;;;;;;;8.50;100.00;99534.38;5271888;28;20047;-78
2022/09/28 06:09:05;;;;;;;9.52;4.43;;;;;;;8.48;100.00;99535.50;5274286;28;20024;-77
2022/09/28 06:11:36;;;;;;;7.03;4.50;;;;;;;8.47;100.00;99534.66;5276088;28;20024;-78
2022/09/28 06:14:08;;;;;;;6.55;4.32;;;;;;;8.44;100.00;99536.75;5275511;28;20029;-77
2022/09/28 06:16:39;;;;;;;5.35;4.43;;;;;;;8.44;100.00;99550.63;5274922;28;20024;-78
2022/09/28 06:19:11;;;;;;;5.00;4.50;;;;;;;8.37;100.00;99539.16;5276088;28;20020;-77
2022/09/28 06:21:42;;;;;;;7.68;4.65;;;;;;;8.34;100.00;99539.41;5270603;28;20436;-77
2022/09/28 06:24:14;;;;;;;6.07;4.82;;;;;;;8.38;100.00;99550.41;5269981;28;20858;-78
2022/09/28 06:26:45;;;;;;;6.97;5.10;;;;;;;8.32;100.00;99533.50;5274963;28;20044;-78
2022/09/28 06:29:17;;;;;;;6.57;4.72;;;;;;;8.39;100.00;99545.03;5270328;28;20059;-78
2022/09/28 06:31:48;;;;;;;8.68;5.13;;;;;;;8.37;100.00;99551.34;5268707;28;20111;-77
2022/09/28 06:34:20;;;;;;;10.75;5.82;;;;;;;8.37;100.00;99548.72;5277381;28;20033;-77
2022/09/28 06:36:51;;;;;;;9.25;6.65;;;;;;;8.35;100.00;99548.88;5278945;28;20052;-77
2022/09/28 06:39:22;;;;;;;9.30;6.28;;;;;;;8.40;100.00;99554.50;5264325;28;20029;-78
2022/09/28 06:41:54;;;;;;;9.95;6.85;;;;;;;8.41;100.00;99550.09;5259733;28;20437;-78
2022/09/28 06:44:25;;;;;;;9.93;7.03;;;;;;;8.43;100.00;99562.03;5259753;28;20389;-78
2022/09/28 06:46:57;;;;;;;11.02;6.93;;;;;;;8.46;100.00;99561.75;5273498;28;20028;-77
2022/09/28 06:49:29;;;;;;;10.40;7.68;;;;;;;8.43;100.00;99556.00;5278470;28;20402;-77
2022/09/28 06:52:00;;;;;;;9.18;7.28;;;;;;;8.44;100.00;99555.84;5277815;28;20059;-78
2022/09/28 06:54:31;;;;;;;12.45;7.95;;;;;;;8.57;100.00;99565.13;5277568;28;20095;-77
2022/09/28 06:57:03;;;;;;;11.45;8.07;;;;;;;8.59;100.00;99563.16;5277345;28;20036;-78
2022/09/28 06:59:34;;;;;;;11.60;7.38;;;;;;;8.64;100.00;99569.59;5278875;28;20020;-78
2022/09/28 07:02:07;;;;;;;11.25;7.63;;;;;;;8.71;100.00;99564.59;5257200;28;20083;-78
2022/09/28 07:04:42;;;;;;;9.23;7.72;;;;;;;8.86;100.00;99570.91;5279147;28;20033;-78
2022/09/28 07:07:13;;;;;;;9.35;7.65;;;;;;;8.90;100.00;99571.44;5277086;28;20063;-77
2022/09/28 07:09:44;;;;;;;16.48;8.35;;;;;;;8.94;100.00;99576.22;5276901;28;20064;-78
2022/09/28 07:12:15;;;;;;;9.77;7.45;;;;;;;9.00;100.00;99572.19;5275923;28;20063;-78
2022/09/28 07:14:48;;;;;;;11.57;8.20;;;;;;;9.05;100.00;99579.56;5279484;28;20044;-78
2022/09/28 07:17:20;;;;;;;9.23;7.35;;;;;;;9.06;100.00;99566.38;5278577;28;20123;-78
2022/09/28 07:19:51;;;;;;;8.20;7.28;;;;;;;9.11;100.00;99586.81;5274381;28;20112;-78
2022/09/28 07:22:23;;;;;;;7.80;6.40;;;;;;;9.12;100.00;99570.16;5269296;28;20033;-78
2022/09/28 07:24:56;;;;;;;8.80;6.20;;;;;;;9.16;100.00;99571.47;5273162;28;20033;-78
2022/09/28 07:27:27;;;;;;;9.60;6.30;;;;;;;9.18;100.00;99578.22;5272425;28;20078;-78
2022/09/28 07:29:59;;;;;;;10.10;6.80;;;;;;;9.31;100.00;99587.44;5273205;28;20024;-78
2022/09/28 07:32:33;;;;;;;8.57;6.20;;;;;;;9.29;100.00;99577.16;5272573;28;20033;-78
2022/09/28 07:35:06;;;;;;;8.00;6.20;;;;;;;9.37;100.00;99594.69;5274551;28;20028;-78
2022/09/28 07:37:38;;;;;;;10.48;7.03;;;;;;;9.42;100.00;99581.97;5275031;28;20499;-77
2022/09/28 07:43:04;;;;;;;7.95;6.93;;;;;;;9.63;100.00;99590.28;5270510;28;20032;-77
2022/09/28 07:45:37;;;;;;;9.70;6.88;;;;;;;9.61;100.00;99586.16;5273238;28;20372;-78
2022/09/28 07:48:08;;;;;;;8.37;6.80;;;;;;;9.66;100.00;99589.97;5278209;28;20106;-77
2022/09/28 07:50:39;;;;;;;9.77;6.65;;;;;;;9.67;100.00;99581.13;5275752;28;20352;-77
2022/09/28 07:53:11;;;;;;;8.88;6.20;;;;;;;9.81;100.00;99595.44;5278728;28;20033;-77
2022/09/28 07:55:42;;;;;;;12.95;6.75;;;;;;;9.91;100.00;99603.97;5276334;28;20508;-77
2022/09/28 07:58:13;;;;;;;10.63;6.90;;;;;;;9.97;100.00;99607.78;5277668;28;20053;-77
2022/09/28 08:00:46;;;;;;;7.53;6.47;;;;;;;10.05;100.00;99604.38;5272077;28;20036;-77
2022/09/28 08:03:20;;;;;;;8.35;6.47;;;;;;;10.10;100.00;99599.47;5279498;28;20024;-77
2022/09/28 08:06:00;;;;;;;7.72;6.55;;;;;;;10.16;100.00;99591.81;5260141;28;20024;-77
2022/09/28 08:08:35;;;;;;;9.18;6.65;;;;;;;10.27;100.00;99601.22;5276190;28;20029;-77
2022/09/28 08:11:09;;;;;;;11.18;6.88;;;;;;;10.34;100.00;99607.47;5275941;28;20086;-77
2022/09/28 08:13:40;;;;;;;8.20;7.07;;;;;;;10.31;100.00;99599.94;5278310;28;20103;-77
2022/09/28 08:16:11;;;;;;;9.30;6.93;;;;;;;10.36;100.00;99602.88;5277266;28;20038;-77
2022/09/28 08:18:43;;;;;;;8.75;7.43;;;;;;;10.48;100.00;99617.31;5272038;28;20698;-78
2022/09/28 08:24:04;;;;;;;7.32;6.53;;;;;;;10.53;100.00;99616.84;5277253;28;20028;-78
2022/09/28 08:26:35;;;;;;;12.23;6.50;;;;;;;10.60;100.00;99614.41;5278113;28;20025;-78
2022/09/28 08:29:07;;;;;;;8.73;6.43;;;;;;;10.76;100.00;99622.31;5275255;28;20532;-78
2022/09/28 08:31:38;;;;;;;8.68;7.28;;;;;;;10.79;100.00;99614.09;5276157;28;20041;-78
2022/09/28 08:34:10;;;;;;;8.25;6.68;;;;;;;10.90;100.00;99616.41;5272739;28;20045;-78
2022/09/28 08:36:42;;;;;;;7.65;6.40;;;;;;;11.00;100.00;99625.94;5278416;28;20055;-78
2022/09/28 08:39:13;;;;;;;6.97;6.28;;;;;;;11.06;100.00;99628.72;5275371;28;20028;-77
2022/09/28 08:41:54;;;;;;;7.45;6.15;;;;;;;11.22;100.00;99627.91;5276406;28;20036;-78
2022/09/28 08:44:40;;;;;;;7.65;5.88;;;;;;;11.34;100.00;99636.25;5274632;28;20025;-78
2022/09/28 08:50:21;;;;;;;7.10;6.05;;;;;;;11.44;100.00;99640.34;5254711;22;20045;-73
2022/09/28 08:53:02;;;;;;;6.55;4.95;;;;;;;11.54;100.00;99642.78;5231718;28;20470;-73
2022/09/28 08:55:38;;;;;;;9.23;5.32;;;;;;;11.65;100.00;99641.63;5233798;28;20076;-73
2022/09/28 08:58:12;;;;;;;7.13;4.97;;;;;;;11.70;100.00;99652.44;5232671;28;20055;-73
2022/09/28 09:00:49;;;;;;;6.63;4.90;;;;;;;11.79;100.00;99646.22;5223342;28;20389;-73
2022/09/28 09:03:36;;;;;;;5.97;4.60;;;;;;;11.88;100.00;99658.34;5229106;28;20030;-73
2022/09/28 09:06:29;;;;;;;8.07;5.18;;;;;;;12.07;100.00;99645.84;5217652;28;20364;-73
2022/09/28 09:09:13;;;;;;;7.18;5.20;;;;;;;12.14;100.00;99658.09;5226300;28;20041;-72
2022/09/28 09:11:50;;;;;;;7.03;4.93;;;;;;;12.19;100.00;99660.22;5223032;28;20029;-73
2022/09/28 09:14:40;;;;;;;6.30;4.65;;;;;;;12.09;100.00;99659.63;5232347;28;20037;-72
2022/09/28 09:17:42;;;;;;;8.35;5.07;;;;;;;12.46;100.00;99660.78;5244215;28;20060;-73
2022/09/28 09:20:18;;;;;;;7.80;4.47;;;;;;;12.38;100.00;99664.25;5242840;28;20120;-72
2022/09/28 09:23:00;;;;;;;6.70;4.57;;;;;;;12.31;100.00;99664.13;5239158;28;20033;-72
2022/09/28 09:25:41;;;;;;;8.55;4.20;;;;;;;12.59;100.00;99672.38;5240609;28;20060;-72
2022/09/28 09:28:30;;;;;;;6.47;4.03;;;;;;;12.80;100.00;99669.13;5240463;28;20025;-73
2022/09/28 09:31:20;;;;;;;6.35;3.92;;;;;;;12.88;100.00;99670.91;5244590;28;20037;-73
2022/09/28 09:34:16;;;;;;;6.93;3.47;;;;;;;13.08;100.00;99674.72;5240916;28;20112;-73
2022/09/28 09:37:05;;;;;;;6.85;3.15;;;;;;;13.27;100.00;99667.41;5240557;28;20033;-73
2022/09/28 09:40:02;;;;;;;4.85;3.13;;;;;;;13.31;100.00;99677.38;5236003;28;20014;-72
2022/09/28 09:43:07;;;;;;;6.00;3.55;;;;;;;13.42;100.00;99675.34;5239352;28;20033;-73
2022/09/28 09:46:03;;;;;;;4.97;3.10;;;;;;;13.42;100.00;99688.50;5242233;28;20111;-73
2022/09/28 09:48:41;;;;;;;5.55;3.42;;;;;;;13.57;100.00;99673.56;5239532;28;20050;-73
2022/09/28 09:51:23;;;;;;;7.13;3.78;;;;;;;13.61;100.00;99680.91;5239172;28;20577;-73
2022/09/28 09:54:00;;;;;;;4.90;2.92;;;;;;;13.61;100.00;99680.09;5223605;28;20025;-73
2022/09/28 09:56:43;;;;;;;3.85;2.58;;;;;;;13.61;100.00;99686.19;5243064;28;20040;-73
2022/09/28 09:59:24;;;;;;;;;;;;;;;14.29;100.00;99686.16;5243713;28;20564;-73
2022/09/28 10:01:56;;;;;;;5.10;2.72;;;;;;;13.88;100.00;99662.91;5239947;28;19913;-73
2022/09/28 10:04:49;;;;;;;4.90;2.22;;;;;;;14.33;100.00;99672.44;5236738;28;20032;-70
2022/09/28 10:07:32;;;;;;;6.97;2.67;;;;;;;14.22;100.00;99683.44;5242321;28;20029;-71
2022/09/28 10:10:14;;;;;;;5.45;3.08;;;;;;;14.39;100.00;99677.97;5236815;28;20029;-71
2022/09/28 10:12:48;;;;;;;5.77;3.03;;;;;;;14.41;100.00;99676.78;5232593;28;20030;-71
2022/09/28 10:15:26;;;;;;;6.65;3.42;;;;;;;14.47;100.00;99677.84;5228289;28;20048;-71
2022/09/28 10:18:05;;;;;;;5.05;2.53;;;;;;;14.28;100.00;99679.22;5231301;28;20037;-71
2022/09/28 10:20:38;;;;;;;4.55;2.53;;;;;;;14.53;100.00;99677.16;5229416;28;20637;-71
2022/09/28 10:23:13;;;;;;;;;;;;;;;15.16;100.00;99672.16;5234681;28;20056;-73
2022/09/28 10:25:46;;;;;;;6.50;2.70;;;;;;;14.72;100.00;99663.38;5242250;28;19917;-73
2022/09/28 10:28:24;;;;;;;4.43;2.42;;;;;;;14.88;100.00;99675.53;5242556;28;20508;-73
2022/09/28 10:30:56;;;;;;;5.45;2.28;;;;;;;14.86;100.00;99676.75;5239293;28;20025;-73
2022/09/28 10:33:32;;;;;;;3.63;2.03;;;;;;;14.88;100.00;99672.06;5242834;28;20025;-73
2022/09/28 10:36:05;;;;;;;5.63;2.83;;;;;;;14.72;100.00;99676.56;5240207;28;20021;-73
2022/09/28 10:38:37;;;;;;;5.38;3.13;;;;;;;14.51;100.00;99674.72;5244286;28;20060;-74
2022/09/28 10:41:10;;;;;;;4.25;2.33;;;;;;;14.48;100.00;99679.50;5219038;28;20039;-73
2022/09/28 10:44:04;;;;;;;4.55;2.70;;;;;;;14.49;100.00;99671.44;5243989;28;20032;-73
2022/09/28 10:46:37;;;;;;;6.22;2.85;;;;;;;14.25;100.00;99677.00;5233983;28;20052;-73
2022/09/28 10:49:15;;;;;;;4.28;2.70;;;;;;;14.33;100.00;99674.25;5234790;28;20046;-73
2022/09/28 10:51:55;;;;;;;3.88;2.33;;;;;;;14.38;100.00;99671.88;5242216;28;20108;-73
2022/09/28 10:54:28;;;;;;;6.07;2.10;;;;;;;14.49;100.00;99670.59;5240010;28;20056;-73
2022/09/28 10:57:00;;;;;;;6.05;2.20;;;;;;;14.63;100.00;99672.41;5240230;28;20037;-72
2022/09/28 10:59:40;;;;;;;4.25;2.10;;;;;;;14.97;100.00;99677.06;5225260;28;20036;-72
2022/09/28 11:02:36;;;;;;;4.15;1.65;;;;;;;15.28;100.00;99670.66;5240517;28;20025;-72
2022/09/28 11:05:20;;;;;;;4.40;2.10;;;;;;;15.24;100.00;99664.94;5207706;28;20053;-72
2022/09/28 11:07:54;;;;;;;3.72;1.90;;;;;;;15.13;100.00;99662.81;5234214;28;20044;-72
2022/09/28 11:10:28;;;;;;;3.72;1.80;;;;;;;15.38;100.00;99672.97;5236487;28;20048;-73
2022/09/28 11:12:59;;;;;;;3.50;1.77;;;;;;;15.47;100.00;99662.09;5241448;28;20025;-73
2022/09/28 11:15:32;;;;;;;4.28;1.92;;;;;;;15.75;100.00;99663.94;5240732;28;20037;-73
2022/09/28 11:18:27;;;;;;;3.63;1.57;;;;;;;15.98;100.00;99674.25;5240509;28;20026;-73
2022/09/28 11:21:16;;;;;;;3.00;1.60;;;;;;;15.79;100.00;99663.34;5246554;28;20272;-73
2022/09/28 11:24:05;;;;;;;5.53;1.80;;;;;;;15.68;100.00;99669.19;5243972;28;20553;-73
2022/09/28 11:26:40;;;;;;;4.18;1.30;;;;;;;15.47;100.00;99675.28;5237300;28;20025;-73
2022/09/28 11:29:21;;;;;;;3.30;1.40;;;;;;;15.56;100.00;99662.75;5244554;28;20033;-73
2022/09/28 11:31:59;;;;;;;3.53;1.30;;;;;;;15.53;100.00;99673.69;5243621;28;20030;-73
2022/09/28 11:34:35;;;;;;;3.50;1.05;;;;;;;15.35;100.00;99678.63;5244948;28;20041;-72
2022/09/28 11:37:21;;;;;;;3.65;1.58;;;;;;;15.31;100.00;99670.28;5245683;28;20652;-72
2022/09/28 11:40:14;;;;;;;3.58;1.50;;;;;;;15.31;100.00;99672.91;5234589;28;20053;-73
2022/09/28 11:43:00;;;;;;;7.32;2.35;;;;;;;15.19;100.00;99667.34;5241219;28;20095;-72
2022/09/28 11:45:48;;;;;;;5.63;1.73;;;;;;;15.61;100.00;99681.50;5235407;28;20044;-73
2022/09/28 11:48:28;;;;;;;4.22;2.42;;;;;;;15.75;100.00;99667.41;5239809;28;20032;-73
2022/09/28 11:51:17;;;;;;;4.80;2.33;;;;;;;15.95;100.00;99667.56;5246775;28;20033;-73
2022/09/28 11:53:54;;;;;;;5.18;2.20;;;;;;;15.69;100.00;99667.38;5243477;28;20270;-73
2022/09/28 11:56:34;;;;;;;3.42;1.88;;;;;;;15.58;100.00;99672.13;5241344;28;20039;-73
2022/09/28 11:59:29;;;;;;;4.95;2.05;;;;;;;15.45;100.00;99668.56;5245476;28;20111;-73
2022/09/28 12:02:15;;;;;;;3.92;1.60;;;;;;;15.69;100.00;99660.25;5227341;28;20049;-73
2022/09/28 12:04:55;;;;;;;4.95;1.55;;;;;;;15.71;100.00;99671.44;5244216;28;20048;-73
2022/09/28 12:07:38;;;;;;;3.90;1.75;;;;;;;15.77;100.00;99662.75;5246719;28;20128;-73
2022/09/28 12:10:14;;;;;;;3.13;1.73;;;;;;;15.58;100.00;99658.13;5244114;28;20371;-73
2022/09/28 12:13:08;;;;;;;4.20;1.85;;;;;;;15.66;100.00;99662.47;5246389;28;20116;-73
2022/09/28 12:15:48;;;;;;;5.82;1.30;;;;;;;15.54;100.00;99667.44;5249296;28;20116;-73
2022/09/28 12:18:24;;;;;;;3.15;1.08;;;;;;;15.44;100.00;99661.66;5249717;28;20063;-73
2022/09/28 12:21:25;;;;;;;3.30;1.17;;;;;;;15.62;100.00;99658.56;5242079;28;20128;-73
2022/09/28 12:24:05;;;;;;;3.55;1.23;;;;;;;15.62;100.00;99654.09;5241865;28;20032;-73
2022/09/28 12:26:58;;;;;;;3.42;1.30;;;;;;;15.82;100.00;99657.69;5242498;28;20033;-73